Portada
METAR-TAF:

METAR-TAF

Aeroports :

Jabalpur, Índia

latitud: 23-10-54N, longitud: 80-03-31E, altitud: 495 m

Observació

L'informe es va fer fa 8 hores i 52 minuts, a les 16:00 UTC
Vent 5 kt del Est/Sud-Est
Temperatura 24°C
Humitat 44%
Pressió 1013 hPa
Visibilitat: 4000 m
calitja

METAR: VAJB 191600Z 12005KT 4000 HZ NSC 24/11 Q1013

Hora: 06:22 (00:52 UTC)

Pronòstic

L'informe es va fer fa 1 hora i 52 minuts, a les 23:00 UTC
Pronòstic vàlid del 20 a les 00 UTC al 20 a les 09 UTC
Vent 3 kt del Nord-Est
Visibilitat: 3000 m
calitja
Evolucionant progressivament
l' 20 a les 06 UTC al 20 a les 08 UTC
Vent 5 kt del Sud-Est
Visibilitat: 5000 m
Escasses núvols a una alçada de 2000 ft
Núvols disperses a una alçada de 2500 ft
calitja

TAF: VAJB 192300Z 2000/2009 05003KT 3000 HZ NSC BECMG 2006/2008 14005KT 5000 HZ FEW020 SCT025

Observacions i pronòstics meteorològics de més de 4000 aeroports (METAR i TAF).

Les estacions disponibles són els punts grocs i vermells al mapa.

Posi el ratolí al punt desitjat per veure el nom de l'estació.

Feu clic per veure les observacions i els pronòstics meteorològics.

Per canviar el mapa: feu clic els botons verds amb una creu de color negre per apropar; al botó verd amb un guió per allunyar la imatge; o en les fletxes verdes per a mapes adjacents.


METAR-TAF: